sensor_id;sensor_type;location;lat;lon;timestamp;P1;durP1;ratioP1;P2;durP2;ratioP2
37507;SDS011;23360;46.936;15.514;2022-07-23T00:01:51;12.90;;;6.78;;
37507;SDS011;23360;46.936;15.514;2022-07-23T00:04:17;11.88;;;5.70;;
37507;SDS011;23360;46.936;15.514;2022-07-23T00:06:44;9.18;;;5.50;;
37507;SDS011;23360;46.936;15.514;2022-07-23T00:09:10;9.45;;;5.90;;
37507;SDS011;23360;46.936;15.514;2022-07-23T00:11:37;13.15;;;5.35;;
37507;SDS011;23360;46.936;15.514;2022-07-23T00:14:03;12.65;;;5.65;;
37507;SDS011;23360;46.936;15.514;2022-07-23T00:16:30;11.77;;;6.15;;
37507;SDS011;23360;46.936;15.514;2022-07-23T00:18:56;13.13;;;5.50;;
37507;SDS011;23360;46.936;15.514;2022-07-23T00:21:24;11.10;;;6.55;;
37507;SDS011;23360;46.936;15.514;2022-07-23T00:23:50;11.38;;;5.95;;
37507;SDS011;23360;46.936;15.514;2022-07-23T00:26:17;12.55;;;4.88;;
37507;SDS011;23360;46.936;15.514;2022-07-23T00:28:43;19.50;;;5.82;;
37507;SDS011;23360;46.936;15.514;2022-07-23T00:31:09;11.43;;;4.95;;
37507;SDS011;23360;46.936;15.514;2022-07-23T00:33:36;9.00;;;5.38;;
37507;SDS011;23360;46.936;15.514;2022-07-23T00:36:02;8.13;;;5.30;;
37507;SDS011;23360;46.936;15.514;2022-07-23T00:38:29;8.80;;;5.45;;
37507;SDS011;23360;46.936;15.514;2022-07-23T00:40:56;10.00;;;5.95;;
37507;SDS011;23360;46.936;15.514;2022-07-23T00:43:23;8.95;;;5.60;;
37507;SDS011;23360;46.936;15.514;2022-07-23T00:45:50;9.15;;;5.53;;
37507;SDS011;23360;46.936;15.514;2022-07-23T00:48:16;11.63;;;6.07;;
37507;SDS011;23360;46.936;15.514;2022-07-23T00:50:43;8.27;;;4.75;;
37507;SDS011;23360;46.936;15.514;2022-07-23T00:53:10;9.35;;;5.95;;
37507;SDS011;23360;46.936;15.514;2022-07-23T00:55:37;15.38;;;5.75;;
37507;SDS011;23360;46.936;15.514;2022-07-23T00:58:04;9.85;;;5.88;;
37507;SDS011;23360;46.936;15.514;2022-07-23T01:00:30;11.13;;;5.68;;
37507;SDS011;23360;46.936;15.514;2022-07-23T01:02:57;11.88;;;6.03;;
37507;SDS011;23360;46.936;15.514;2022-07-23T01:05:23;11.25;;;6.10;;
37507;SDS011;23360;46.936;15.514;2022-07-23T01:07:51;19.50;;;7.80;;
37507;SDS011;23360;46.936;15.514;2022-07-23T01:10:21;11.13;;;6.22;;
37507;SDS011;23360;46.936;15.514;2022-07-23T01:13:01;12.88;;;7.25;;
37507;SDS011;23360;46.936;15.514;2022-07-23T01:15:28;15.55;;;7.70;;
37507;SDS011;23360;46.936;15.514;2022-07-23T01:17:54;15.25;;;7.90;;
37507;SDS011;23360;46.936;15.514;2022-07-23T01:20:21;12.18;;;8.15;;
37507;SDS011;23360;46.936;15.514;2022-07-23T01:22:47;17.15;;;8.98;;
37507;SDS011;23360;46.936;15.514;2022-07-23T01:25:14;14.68;;;8.05;;
37507;SDS011;23360;46.936;15.514;2022-07-23T01:27:40;17.48;;;9.00;;
37507;SDS011;23360;46.936;15.514;2022-07-23T01:30:07;14.70;;;8.55;;
37507;SDS011;23360;46.936;15.514;2022-07-23T01:32:34;16.00;;;9.38;;
37507;SDS011;23360;46.936;15.514;2022-07-23T01:35:00;15.45;;;9.10;;
37507;SDS011;23360;46.936;15.514;2022-07-23T01:37:27;17.77;;;9.02;;
37507;SDS011;23360;46.936;15.514;2022-07-23T01:39:54;16.33;;;7.85;;
37507;SDS011;23360;46.936;15.514;2022-07-23T01:42:20;20.70;;;8.10;;
37507;SDS011;23360;46.936;15.514;2022-07-23T01:44:47;14.02;;;6.93;;
37507;SDS011;23360;46.936;15.514;2022-07-23T01:47:13;13.25;;;7.82;;
37507;SDS011;23360;46.936;15.514;2022-07-23T01:49:40;13.05;;;7.18;;
37507;SDS011;23360;46.936;15.514;2022-07-23T01:52:06;12.73;;;7.40;;
37507;SDS011;23360;46.936;15.514;2022-07-23T01:54:37;12.45;;;7.28;;
37507;SDS011;23360;46.936;15.514;2022-07-23T01:57:04;11.10;;;7.32;;
37507;SDS011;23360;46.936;15.514;2022-07-23T01:59:31;13.82;;;7.03;;
37507;SDS011;23360;46.936;15.514;2022-07-23T02:01:58;14.25;;;7.18;;
37507;SDS011;23360;46.936;15.514;2022-07-23T02:04:24;10.90;;;7.13;;
37507;SDS011;23360;46.936;15.514;2022-07-23T02:06:51;11.93;;;6.53;;
37507;SDS011;23360;46.936;15.514;2022-07-23T02:09:18;15.57;;;6.97;;
37507;SDS011;23360;46.936;15.514;2022-07-23T02:11:44;11.48;;;6.25;;
37507;SDS011;23360;46.936;15.514;2022-07-23T02:14:11;10.38;;;7.05;;
37507;SDS011;23360;46.936;15.514;2022-07-23T02:16:37;11.30;;;7.30;;
37507;SDS011;23360;46.936;15.514;2022-07-23T02:19:04;11.57;;;6.80;;
37507;SDS011;23360;46.936;15.514;2022-07-23T02:21:30;13.70;;;6.95;;
37507;SDS011;23360;46.936;15.514;2022-07-23T02:23:57;12.55;;;7.10;;
37507;SDS011;23360;46.936;15.514;2022-07-23T02:26:24;12.60;;;7.47;;
37507;SDS011;23360;46.936;15.514;2022-07-23T02:28:50;16.85;;;7.50;;
37507;SDS011;23360;46.936;15.514;2022-07-23T02:31:16;10.23;;;7.50;;
37507;SDS011;23360;46.936;15.514;2022-07-23T02:33:43;11.65;;;6.50;;
37507;SDS011;23360;46.936;15.514;2022-07-23T02:36:09;14.50;;;7.82;;
37507;SDS011;23360;46.936;15.514;2022-07-23T02:38:36;10.98;;;7.45;;
37507;SDS011;23360;46.936;15.514;2022-07-23T02:41:02;14.65;;;8.13;;
37507;SDS011;23360;46.936;15.514;2022-07-23T02:43:29;12.88;;;7.80;;
37507;SDS011;23360;46.936;15.514;2022-07-23T02:45:55;13.05;;;8.05;;
37507;SDS011;23360;46.936;15.514;2022-07-23T02:48:22;17.00;;;8.30;;
37507;SDS011;23360;46.936;15.514;2022-07-23T02:50:48;12.55;;;8.00;;
37507;SDS011;23360;46.936;15.514;2022-07-23T02:53:15;12.65;;;8.40;;
37507;SDS011;23360;46.936;15.514;2022-07-23T02:55:41;16.55;;;9.18;;
37507;SDS011;23360;46.936;15.514;2022-07-23T02:58:08;23.02;;;8.95;;
37507;SDS011;23360;46.936;15.514;2022-07-23T03:00:34;14.63;;;9.18;;
37507;SDS011;23360;46.936;15.514;2022-07-23T03:03:01;13.77;;;9.10;;
37507;SDS011;23360;46.936;15.514;2022-07-23T03:05:27;15.27;;;8.55;;
37507;SDS011;23360;46.936;15.514;2022-07-23T03:07:54;17.73;;;9.55;;
37507;SDS011;23360;46.936;15.514;2022-07-23T03:10:20;16.17;;;9.10;;
37507;SDS011;23360;46.936;15.514;2022-07-23T03:12:47;19.13;;;8.23;;
37507;SDS011;23360;46.936;15.514;2022-07-23T03:15:13;14.43;;;8.77;;
37507;SDS011;23360;46.936;15.514;2022-07-23T03:17:40;18.15;;;8.98;;
37507;SDS011;23360;46.936;15.514;2022-07-23T03:20:06;16.17;;;8.98;;
37507;SDS011;23360;46.936;15.514;2022-07-23T03:22:33;12.23;;;8.68;;
37507;SDS011;23360;46.936;15.514;2022-07-23T03:24:59;15.23;;;8.93;;
37507;SDS011;23360;46.936;15.514;2022-07-23T03:27:27;13.52;;;8.13;;
37507;SDS011;23360;46.936;15.514;2022-07-23T03:29:55;12.73;;;8.38;;
37507;SDS011;23360;46.936;15.514;2022-07-23T03:32:21;12.27;;;8.30;;
37507;SDS011;23360;46.936;15.514;2022-07-23T03:34:48;13.48;;;9.07;;
37507;SDS011;23360;46.936;15.514;2022-07-23T03:37:19;17.58;;;9.68;;
37507;SDS011;23360;46.936;15.514;2022-07-23T03:39:47;13.40;;;7.70;;
37507;SDS011;23360;46.936;15.514;2022-07-23T03:42:13;19.95;;;8.93;;
37507;SDS011;23360;46.936;15.514;2022-07-23T03:44:40;17.65;;;9.57;;
37507;SDS011;23360;46.936;15.514;2022-07-23T03:47:06;16.48;;;9.05;;
37507;SDS011;23360;46.936;15.514;2022-07-23T03:49:33;12.55;;;9.50;;
37507;SDS011;23360;46.936;15.514;2022-07-23T03:51:59;15.02;;;9.45;;
37507;SDS011;23360;46.936;15.514;2022-07-23T03:54:26;15.57;;;8.77;;
37507;SDS011;23360;46.936;15.514;2022-07-23T03:56:52;14.45;;;9.38;;
37507;SDS011;23360;46.936;15.514;2022-07-23T03:59:19;12.80;;;9.00;;
37507;SDS011;23360;46.936;15.514;2022-07-23T04:01:49;13.35;;;9.10;;
37507;SDS011;23360;46.936;15.514;2022-07-23T04:04:16;14.55;;;8.68;;
37507;SDS011;23360;46.936;15.514;2022-07-23T04:06:42;11.95;;;8.38;;
37507;SDS011;23360;46.936;15.514;2022-07-23T04:09:09;14.32;;;8.50;;
37507;SDS011;23360;46.936;15.514;2022-07-23T04:11:35;14.52;;;8.45;;
37507;SDS011;23360;46.936;15.514;2022-07-23T04:14:02;14.32;;;8.52;;
37507;SDS011;23360;46.936;15.514;2022-07-23T04:16:29;15.20;;;9.20;;
37507;SDS011;23360;46.936;15.514;2022-07-23T04:18:57;14.80;;;8.82;;
37507;SDS011;23360;46.936;15.514;2022-07-23T04:21:24;12.45;;;8.02;;
37507;SDS011;23360;46.936;15.514;2022-07-23T04:23:51;13.45;;;8.45;;
37507;SDS011;23360;46.936;15.514;2022-07-23T04:26:17;16.55;;;8.50;;
37507;SDS011;23360;46.936;15.514;2022-07-23T04:28:44;16.58;;;9.15;;
37507;SDS011;23360;46.936;15.514;2022-07-23T04:31:10;13.43;;;8.25;;
37507;SDS011;23360;46.936;15.514;2022-07-23T04:33:37;12.30;;;8.27;;
37507;SDS011;23360;46.936;15.514;2022-07-23T04:36:03;13.80;;;8.25;;
37507;SDS011;23360;46.936;15.514;2022-07-23T04:38:30;13.65;;;8.10;;
37507;SDS011;23360;46.936;15.514;2022-07-23T04:40:57;11.73;;;7.28;;
37507;SDS011;23360;46.936;15.514;2022-07-23T04:43:23;16.42;;;8.15;;
37507;SDS011;23360;46.936;15.514;2022-07-23T04:45:49;15.00;;;7.97;;
37507;SDS011;23360;46.936;15.514;2022-07-23T04:48:16;12.50;;;8.48;;
37507;SDS011;23360;46.936;15.514;2022-07-23T04:50:43;11.32;;;7.30;;
37507;SDS011;23360;46.936;15.514;2022-07-23T04:53:10;11.85;;;7.40;;
37507;SDS011;23360;46.936;15.514;2022-07-23T04:55:36;14.45;;;7.78;;
37507;SDS011;23360;46.936;15.514;2022-07-23T04:58:03;10.73;;;7.10;;
37507;SDS011;23360;46.936;15.514;2022-07-23T05:00:29;12.07;;;7.93;;
37507;SDS011;23360;46.936;15.514;2022-07-23T05:02:56;12.18;;;8.10;;
37507;SDS011;23360;46.936;15.514;2022-07-23T05:05:22;12.27;;;8.30;;
37507;SDS011;23360;46.936;15.514;2022-07-23T05:07:50;12.02;;;8.10;;
37507;SDS011;23360;46.936;15.514;2022-07-23T05:10:16;18.40;;;8.13;;
37507;SDS011;23360;46.936;15.514;2022-07-23T05:12:43;15.18;;;7.80;;
37507;SDS011;23360;46.936;15.514;2022-07-23T05:15:09;13.57;;;8.27;;
37507;SDS011;23360;46.936;15.514;2022-07-23T05:17:36;11.18;;;7.90;;
37507;SDS011;23360;46.936;15.514;2022-07-23T05:20:02;14.43;;;7.70;;
37507;SDS011;23360;46.936;15.514;2022-07-23T05:22:29;11.75;;;7.50;;
37507;SDS011;23360;46.936;15.514;2022-07-23T05:24:55;11.02;;;7.50;;
37507;SDS011;23360;46.936;15.514;2022-07-23T05:27:22;13.70;;;7.18;;
37507;SDS011;23360;46.936;15.514;2022-07-23T05:29:48;13.88;;;8.27;;
37507;SDS011;23360;46.936;15.514;2022-07-23T05:32:15;11.38;;;7.40;;
37507;SDS011;23360;46.936;15.514;2022-07-23T05:34:41;15.63;;;7.35;;
37507;SDS011;23360;46.936;15.514;2022-07-23T05:37:09;13.82;;;8.13;;
37507;SDS011;23360;46.936;15.514;2022-07-23T05:39:35;13.50;;;7.32;;
37507;SDS011;23360;46.936;15.514;2022-07-23T05:42:02;15.82;;;8.07;;
37507;SDS011;23360;46.936;15.514;2022-07-23T05:44:28;13.25;;;7.32;;
37507;SDS011;23360;46.936;15.514;2022-07-23T05:47:00;14.07;;;7.82;;
37507;SDS011;23360;46.936;15.514;2022-07-23T05:49:26;13.10;;;7.50;;
37507;SDS011;23360;46.936;15.514;2022-07-23T05:51:53;13.10;;;8.30;;
37507;SDS011;23360;46.936;15.514;2022-07-23T05:54:19;11.55;;;8.25;;
37507;SDS011;23360;46.936;15.514;2022-07-23T05:56:45;13.45;;;8.20;;
37507;SDS011;23360;46.936;15.514;2022-07-23T05:59:12;19.48;;;8.07;;
37507;SDS011;23360;46.936;15.514;2022-07-23T06:01:39;13.73;;;7.50;;
37507;SDS011;23360;46.936;15.514;2022-07-23T06:04:06;11.25;;;7.28;;
37507;SDS011;23360;46.936;15.514;2022-07-23T06:06:32;12.10;;;8.57;;
37507;SDS011;23360;46.936;15.514;2022-07-23T06:08:59;12.90;;;8.30;;
37507;SDS011;23360;46.936;15.514;2022-07-23T06:11:26;13.70;;;7.63;;
37507;SDS011;23360;46.936;15.514;2022-07-23T06:13:52;11.50;;;7.25;;
37507;SDS011;23360;46.936;15.514;2022-07-23T06:16:19;10.63;;;7.30;;
37507;SDS011;23360;46.936;15.514;2022-07-23T06:18:45;13.75;;;7.20;;
37507;SDS011;23360;46.936;15.514;2022-07-23T06:21:12;11.13;;;7.38;;
37507;SDS011;23360;46.936;15.514;2022-07-23T06:23:58;11.25;;;7.22;;
37507;SDS011;23360;46.936;15.514;2022-07-23T06:26:25;11.57;;;7.32;;
37507;SDS011;23360;46.936;15.514;2022-07-23T06:28:51;16.40;;;7.85;;
37507;SDS011;23360;46.936;15.514;2022-07-23T06:31:18;15.18;;;8.10;;
37507;SDS011;23360;46.936;15.514;2022-07-23T06:33:44;12.85;;;8.02;;
37507;SDS011;23360;46.936;15.514;2022-07-23T06:36:11;18.33;;;7.90;;
37507;SDS011;23360;46.936;15.514;2022-07-23T06:38:38;10.52;;;7.55;;
37507;SDS011;23360;46.936;15.514;2022-07-23T06:41:05;19.45;;;8.05;;
37507;SDS011;23360;46.936;15.514;2022-07-23T06:43:32;11.35;;;7.35;;
37507;SDS011;23360;46.936;15.514;2022-07-23T06:45:58;12.65;;;8.50;;
37507;SDS011;23360;46.936;15.514;2022-07-23T06:48:25;12.88;;;7.70;;
37507;SDS011;23360;46.936;15.514;2022-07-23T06:50:51;13.80;;;7.45;;
37507;SDS011;23360;46.936;15.514;2022-07-23T06:53:18;21.60;;;8.52;;
37507;SDS011;23360;46.936;15.514;2022-07-23T06:55:45;12.38;;;7.68;;
37507;SDS011;23360;46.936;15.514;2022-07-23T06:58:11;14.35;;;7.63;;
37507;SDS011;23360;46.936;15.514;2022-07-23T07:00:40;13.55;;;7.32;;
37507;SDS011;23360;46.936;15.514;2022-07-23T07:03:06;17.30;;;8.45;;
37507;SDS011;23360;46.936;15.514;2022-07-23T07:05:33;11.32;;;7.60;;
37507;SDS011;23360;46.936;15.514;2022-07-23T07:08:00;13.85;;;7.95;;
37507;SDS011;23360;46.936;15.514;2022-07-23T07:10:27;10.85;;;8.02;;
37507;SDS011;23360;46.936;15.514;2022-07-23T07:12:53;13.05;;;7.63;;
37507;SDS011;23360;46.936;15.514;2022-07-23T07:15:20;11.98;;;7.80;;
37507;SDS011;23360;46.936;15.514;2022-07-23T07:17:46;13.48;;;8.30;;
37507;SDS011;23360;46.936;15.514;2022-07-23T07:20:13;23.60;;;8.93;;
37507;SDS011;23360;46.936;15.514;2022-07-23T07:22:40;16.25;;;7.65;;
37507;SDS011;23360;46.936;15.514;2022-07-23T07:25:06;12.70;;;7.65;;
37507;SDS011;23360;46.936;15.514;2022-07-23T07:27:33;14.43;;;7.50;;
37507;SDS011;23360;46.936;15.514;2022-07-23T07:30:00;15.43;;;8.05;;
37507;SDS011;23360;46.936;15.514;2022-07-23T07:32:26;18.80;;;7.68;;
37507;SDS011;23360;46.936;15.514;2022-07-23T07:35:12;11.32;;;7.15;;
37507;SDS011;23360;46.936;15.514;2022-07-23T07:37:43;12.93;;;8.40;;
37507;SDS011;23360;46.936;15.514;2022-07-23T07:40:10;13.70;;;8.15;;
37507;SDS011;23360;46.936;15.514;2022-07-23T07:42:49;17.83;;;7.68;;
37507;SDS011;23360;46.936;15.514;2022-07-23T07:45:17;11.95;;;7.90;;
37507;SDS011;23360;46.936;15.514;2022-07-23T07:47:43;14.38;;;8.10;;
37507;SDS011;23360;46.936;15.514;2022-07-23T07:50:10;10.73;;;7.53;;
37507;SDS011;23360;46.936;15.514;2022-07-23T07:52:38;10.30;;;7.63;;
37507;SDS011;23360;46.936;15.514;2022-07-23T07:55:05;14.15;;;6.80;;
37507;SDS011;23360;46.936;15.514;2022-07-23T07:57:32;11.35;;;7.03;;
37507;SDS011;23360;46.936;15.514;2022-07-23T07:59:59;13.80;;;7.07;;
37507;SDS011;23360;46.936;15.514;2022-07-23T08:05:07;19.00;;;6.82;;
37507;SDS011;23360;46.936;15.514;2022-07-23T08:07:35;10.75;;;7.18;;
37507;SDS011;23360;46.936;15.514;2022-07-23T08:10:01;10.75;;;7.28;;
37507;SDS011;23360;46.936;15.514;2022-07-23T08:12:28;12.13;;;7.72;;
37507;SDS011;23360;46.936;15.514;2022-07-23T08:14:54;10.98;;;6.80;;
37507;SDS011;23360;46.936;15.514;2022-07-23T08:17:21;11.07;;;7.15;;
37507;SDS011;23360;46.936;15.514;2022-07-23T08:19:47;17.60;;;7.07;;
37507;SDS011;23360;46.936;15.514;2022-07-23T08:22:14;16.08;;;6.60;;
37507;SDS011;23360;46.936;15.514;2022-07-23T08:24:40;12.02;;;6.78;;
37507;SDS011;23360;46.936;15.514;2022-07-23T08:27:07;13.45;;;7.15;;
37507;SDS011;23360;46.936;15.514;2022-07-23T08:29:33;8.75;;;6.28;;
37507;SDS011;23360;46.936;15.514;2022-07-23T08:32:00;14.18;;;7.00;;
37507;SDS011;23360;46.936;15.514;2022-07-23T08:34:46;15.27;;;6.75;;
37507;SDS011;23360;46.936;15.514;2022-07-23T08:37:12;25.55;;;8.73;;
37507;SDS011;23360;46.936;15.514;2022-07-23T08:39:39;13.70;;;6.75;;
37507;SDS011;23360;46.936;15.514;2022-07-23T08:42:06;11.90;;;6.97;;
37507;SDS011;23360;46.936;15.514;2022-07-23T08:44:33;13.20;;;6.97;;
37507;SDS011;23360;46.936;15.514;2022-07-23T08:47:00;12.45;;;6.47;;
37507;SDS011;23360;46.936;15.514;2022-07-23T08:49:27;12.90;;;6.90;;
37507;SDS011;23360;46.936;15.514;2022-07-23T08:51:55;12.65;;;6.13;;
37507;SDS011;23360;46.936;15.514;2022-07-23T08:54:21;9.00;;;6.22;;
37507;SDS011;23360;46.936;15.514;2022-07-23T08:56:48;10.70;;;6.38;;
37507;SDS011;23360;46.936;15.514;2022-07-23T08:59:14;10.52;;;6.75;;
37507;SDS011;23360;46.936;15.514;2022-07-23T09:01:41;15.52;;;6.82;;
37507;SDS011;23360;46.936;15.514;2022-07-23T09:04:07;14.90;;;6.72;;
37507;SDS011;23360;46.936;15.514;2022-07-23T09:06:34;15.23;;;7.60;;
37507;SDS011;23360;46.936;15.514;2022-07-23T09:09:17;10.23;;;6.85;;
37507;SDS011;23360;46.936;15.514;2022-07-23T09:11:47;14.15;;;7.43;;
37507;SDS011;23360;46.936;15.514;2022-07-23T09:14:14;9.50;;;6.38;;
37507;SDS011;23360;46.936;15.514;2022-07-23T09:16:40;10.43;;;7.32;;
37507;SDS011;23360;46.936;15.514;2022-07-23T09:19:07;11.07;;;7.40;;
37507;SDS011;23360;46.936;15.514;2022-07-23T09:21:37;15.85;;;7.82;;
37507;SDS011;23360;46.936;15.514;2022-07-23T09:24:08;14.55;;;6.97;;
37507;SDS011;23360;46.936;15.514;2022-07-23T09:26:38;10.18;;;7.25;;
37507;SDS011;23360;46.936;15.514;2022-07-23T09:29:13;11.95;;;7.05;;
37507;SDS011;23360;46.936;15.514;2022-07-23T09:31:58;12.25;;;6.90;;
37507;SDS011;23360;46.936;15.514;2022-07-23T09:36:52;11.90;;;6.43;;
37507;SDS011;23360;46.936;15.514;2022-07-23T09:39:29;9.05;;;6.57;;
37507;SDS011;23360;46.936;15.514;2022-07-23T09:41:56;10.23;;;6.97;;
37507;SDS011;23360;46.936;15.514;2022-07-23T09:44:23;9.15;;;6.20;;
37507;SDS011;23360;46.936;15.514;2022-07-23T09:46:57;11.88;;;6.07;;
37507;SDS011;23360;46.936;15.514;2022-07-23T09:49:24;16.95;;;6.95;;
37507;SDS011;23360;46.936;15.514;2022-07-23T09:51:55;12.32;;;6.40;;
37507;SDS011;23360;46.936;15.514;2022-07-23T09:56:51;13.50;;;6.03;;
37507;SDS011;23360;46.936;15.514;2022-07-23T09:59:17;11.27;;;6.38;;
37507;SDS011;23360;46.936;15.514;2022-07-23T10:01:44;12.55;;;5.80;;
37507;SDS011;23360;46.936;15.514;2022-07-23T10:04:11;15.52;;;6.60;;
37507;SDS011;23360;46.936;15.514;2022-07-23T10:06:39;10.52;;;6.22;;
37507;SDS011;23360;46.936;15.514;2022-07-23T10:09:06;9.73;;;5.50;;
37507;SDS011;23360;46.936;15.514;2022-07-23T10:11:34;10.32;;;6.10;;
37507;SDS011;23360;46.936;15.514;2022-07-23T10:14:01;9.90;;;5.95;;
37507;SDS011;23360;46.936;15.514;2022-07-23T10:16:30;13.20;;;5.68;;
37507;SDS011;23360;46.936;15.514;2022-07-23T10:18:57;9.30;;;5.80;;
37507;SDS011;23360;46.936;15.514;2022-07-23T10:21:25;11.75;;;6.10;;
37507;SDS011;23360;46.936;15.514;2022-07-23T10:36:55;10.93;;;5.10;;
37507;SDS011;23360;46.936;15.514;2022-07-23T10:39:24;10.43;;;4.70;;
37507;SDS011;23360;46.936;15.514;2022-07-23T10:41:50;9.40;;;5.53;;
37507;SDS011;23360;46.936;15.514;2022-07-23T10:44:17;7.50;;;4.78;;
37507;SDS011;23360;46.936;15.514;2022-07-23T10:47:02;9.77;;;5.20;;
37507;SDS011;23360;46.936;15.514;2022-07-23T10:49:52;7.68;;;4.80;;
37507;SDS011;23360;46.936;15.514;2022-07-23T10:52:19;8.23;;;4.72;;
37507;SDS011;23360;46.936;15.514;2022-07-23T10:57:13;8.00;;;5.32;;
37507;SDS011;23360;46.936;15.514;2022-07-23T11:02:24;11.77;;;5.18;;
37507;SDS011;23360;46.936;15.514;2022-07-23T11:04:52;13.52;;;5.18;;
37507;SDS011;23360;46.936;15.514;2022-07-23T11:07:19;7.88;;;5.22;;
37507;SDS011;23360;46.936;15.514;2022-07-23T11:09:47;7.32;;;4.47;;
37507;SDS011;23360;46.936;15.514;2022-07-23T11:17:26;9.48;;;5.63;;
37507;SDS011;23360;46.936;15.514;2022-07-23T11:25:11;12.75;;;5.00;;
37507;SDS011;23360;46.936;15.514;2022-07-23T11:30:04;8.32;;;4.82;;
37507;SDS011;23360;46.936;15.514;2022-07-23T11:32:32;8.52;;;5.03;;
37507;SDS011;23360;46.936;15.514;2022-07-23T11:35:01;11.60;;;5.00;;
37507;SDS011;23360;46.936;15.514;2022-07-23T11:37:29;7.65;;;4.75;;
37507;SDS011;23360;46.936;15.514;2022-07-23T11:39:58;7.18;;;4.78;;
37507;SDS011;23360;46.936;15.514;2022-07-23T11:42:24;8.57;;;5.32;;
37507;SDS011;23360;46.936;15.514;2022-07-23T11:44:56;12.15;;;5.00;;
37507;SDS011;23360;46.936;15.514;2022-07-23T11:47:23;10.50;;;5.40;;
37507;SDS011;23360;46.936;15.514;2022-07-23T11:49:54;10.30;;;5.13;;
37507;SDS011;23360;46.936;15.514;2022-07-23T11:52:20;12.00;;;4.90;;
37507;SDS011;23360;46.936;15.514;2022-07-23T11:54:49;8.90;;;5.32;;
37507;SDS011;23360;46.936;15.514;2022-07-23T11:57:15;8.55;;;5.80;;
37507;SDS011;23360;46.936;15.514;2022-07-23T11:59:42;11.23;;;5.30;;
37507;SDS011;23360;46.936;15.514;2022-07-23T12:02:11;14.30;;;5.00;;
37507;SDS011;23360;46.936;15.514;2022-07-23T12:07:04;10.52;;;6.13;;
37507;SDS011;23360;46.936;15.514;2022-07-23T12:09:48;13.90;;;4.93;;
37507;SDS011;23360;46.936;15.514;2022-07-23T12:12:15;10.75;;;5.32;;
37507;SDS011;23360;46.936;15.514;2022-07-23T12:14:55;7.10;;;4.82;;
37507;SDS011;23360;46.936;15.514;2022-07-23T12:17:27;8.55;;;5.25;;
37507;SDS011;23360;46.936;15.514;2022-07-23T12:19:54;7.60;;;4.72;;
37507;SDS011;23360;46.936;15.514;2022-07-23T12:22:22;6.45;;;4.72;;
37507;SDS011;23360;46.936;15.514;2022-07-23T12:24:56;13.13;;;5.22;;
37507;SDS011;23360;46.936;15.514;2022-07-23T12:27:23;7.93;;;5.30;;
37507;SDS011;23360;46.936;15.514;2022-07-23T12:29:50;7.40;;;4.95;;
37507;SDS011;23360;46.936;15.514;2022-07-23T12:34:48;11.77;;;4.95;;
37507;SDS011;23360;46.936;15.514;2022-07-23T12:37:30;7.97;;;5.13;;
37507;SDS011;23360;46.936;15.514;2022-07-23T12:39:58;10.10;;;5.83;;
37507;SDS011;23360;46.936;15.514;2022-07-23T12:42:24;10.10;;;4.90;;
37507;SDS011;23360;46.936;15.514;2022-07-23T12:45:07;9.02;;;5.00;;
37507;SDS011;23360;46.936;15.514;2022-07-23T12:50:31;9.77;;;5.13;;
37507;SDS011;23360;46.936;15.514;2022-07-23T12:53:11;8.18;;;4.88;;
37507;SDS011;23360;46.936;15.514;2022-07-23T12:55:44;8.27;;;5.03;;
37507;SDS011;23360;46.936;15.514;2022-07-23T12:58:39;7.13;;;5.03;;
37507;SDS011;23360;46.936;15.514;2022-07-23T13:01:08;10.93;;;5.28;;
37507;SDS011;23360;46.936;15.514;2022-07-23T13:03:40;10.10;;;5.07;;
37507;SDS011;23360;46.936;15.514;2022-07-23T13:06:09;13.57;;;5.50;;
37507;SDS011;23360;46.936;15.514;2022-07-23T13:08:38;10.13;;;4.97;;
37507;SDS011;23360;46.936;15.514;2022-07-23T13:11:06;6.70;;;5.10;;
37507;SDS011;23360;46.936;15.514;2022-07-23T13:13:34;8.00;;;5.40;;
37507;SDS011;23360;46.936;15.514;2022-07-23T13:16:01;10.43;;;4.85;;
37507;SDS011;23360;46.936;15.514;2022-07-23T13:18:32;8.13;;;5.15;;
37507;SDS011;23360;46.936;15.514;2022-07-23T13:20:59;6.93;;;4.90;;
37507;SDS011;23360;46.936;15.514;2022-07-23T13:23:26;6.55;;;4.63;;
37507;SDS011;23360;46.936;15.514;2022-07-23T13:25:55;7.93;;;5.22;;
37507;SDS011;23360;46.936;15.514;2022-07-23T13:28:22;10.90;;;5.35;;
37507;SDS011;23360;46.936;15.514;2022-07-23T13:30:49;11.10;;;5.68;;
37507;SDS011;23360;46.936;15.514;2022-07-23T13:33:20;8.32;;;5.72;;
37507;SDS011;23360;46.936;15.514;2022-07-23T13:35:47;9.55;;;5.50;;
37507;SDS011;23360;46.936;15.514;2022-07-23T13:38:14;8.70;;;5.20;;
37507;SDS011;23360;46.936;15.514;2022-07-23T13:40:43;8.80;;;4.90;;
37507;SDS011;23360;46.936;15.514;2022-07-23T13:43:11;10.07;;;5.53;;
37507;SDS011;23360;46.936;15.514;2022-07-23T13:45:39;9.45;;;5.18;;
37507;SDS011;23360;46.936;15.514;2022-07-23T13:48:06;9.95;;;5.32;;
37507;SDS011;23360;46.936;15.514;2022-07-23T13:50:33;7.28;;;4.65;;
37507;SDS011;23360;46.936;15.514;2022-07-23T13:53:03;8.48;;;5.25;;
37507;SDS011;23360;46.936;15.514;2022-07-23T13:57:58;10.23;;;5.43;;
37507;SDS011;23360;46.936;15.514;2022-07-23T14:00:24;9.45;;;5.68;;
37507;SDS011;23360;46.936;15.514;2022-07-23T14:03:11;9.15;;;5.70;;
37507;SDS011;23360;46.936;15.514;2022-07-23T14:05:40;8.10;;;5.13;;
37507;SDS011;23360;46.936;15.514;2022-07-23T14:08:10;11.05;;;5.03;;
37507;SDS011;23360;46.936;15.514;2022-07-23T14:10:40;9.57;;;5.32;;
37507;SDS011;23360;46.936;15.514;2022-07-23T14:13:08;7.90;;;5.68;;
37507;SDS011;23360;46.936;15.514;2022-07-23T14:15:35;7.90;;;5.00;;
37507;SDS011;23360;46.936;15.514;2022-07-23T14:18:03;9.80;;;5.93;;
37507;SDS011;23360;46.936;15.514;2022-07-23T14:20:30;9.30;;;5.70;;
37507;SDS011;23360;46.936;15.514;2022-07-23T14:22:56;6.93;;;4.68;;
37507;SDS011;23360;46.936;15.514;2022-07-23T14:25:29;13.63;;;5.03;;
37507;SDS011;23360;46.936;15.514;2022-07-23T14:27:56;10.23;;;5.25;;
37507;SDS011;23360;46.936;15.514;2022-07-23T14:30:22;11.85;;;6.00;;
37507;SDS011;23360;46.936;15.514;2022-07-23T14:32:54;7.35;;;5.38;;
37507;SDS011;23360;46.936;15.514;2022-07-23T14:35:20;7.63;;;5.60;;
37507;SDS011;23360;46.936;15.514;2022-07-23T14:37:49;9.77;;;4.10;;
37507;SDS011;23360;46.936;15.514;2022-07-23T14:40:16;16.15;;;5.07;;
37507;SDS011;23360;46.936;15.514;2022-07-23T14:42:43;8.70;;;5.47;;
37507;SDS011;23360;46.936;15.514;2022-07-23T14:45:09;8.30;;;5.72;;
37507;SDS011;23360;46.936;15.514;2022-07-23T14:47:36;9.68;;;5.25;;
37507;SDS011;23360;46.936;15.514;2022-07-23T14:50:05;10.15;;;5.50;;
37507;SDS011;23360;46.936;15.514;2022-07-23T14:52:31;12.00;;;5.10;;
37507;SDS011;23360;46.936;15.514;2022-07-23T14:54:58;13.02;;;5.25;;
37507;SDS011;23360;46.936;15.514;2022-07-23T14:57:24;6.53;;;4.78;;
37507;SDS011;23360;46.936;15.514;2022-07-23T14:59:53;8.15;;;5.65;;
37507;SDS011;23360;46.936;15.514;2022-07-23T15:02:21;8.32;;;4.82;;
37507;SDS011;23360;46.936;15.514;2022-07-23T15:04:47;10.88;;;4.70;;
37507;SDS011;23360;46.936;15.514;2022-07-23T15:07:14;12.60;;;5.05;;
37507;SDS011;23360;46.936;15.514;2022-07-23T15:09:40;11.32;;;5.63;;
37507;SDS011;23360;46.936;15.514;2022-07-23T15:12:07;7.88;;;5.13;;
37507;SDS011;23360;46.936;15.514;2022-07-23T15:14:38;11.35;;;5.30;;
37507;SDS011;23360;46.936;15.514;2022-07-23T15:17:04;7.45;;;5.03;;